Time;durP1;ratioP1;P1;durP2;ratioP2;P2;SDS_P1;SDS_P2;PMS_P1;PMS_P2;Temp;Humidity;BMP_temperature;BMP_pressure;BME280_temperature;BME280_humidity;BME280_pressure;Samples;Min_cycle;Max_cycle;Signal;HPM_P1;HPM_P2
2022/10/07 00:01:40;;;;;;;21.77;4.95;;;;;;;;;;4983119;28;20031;-73
2022/10/07 00:04:06;;;;;;;27.70;5.10;;;;;;;;;;4979681;28;20042;-72
2022/10/07 00:06:32;;;;;;;30.48;6.03;;;;;;;;;;4985234;28;20059;-72
2022/10/07 00:09:01;;;;;;;20.33;4.60;;;;;;;;;;4969491;28;20089;-72
2022/10/07 00:11:28;;;;;;;21.52;4.72;;;;;;;;;;4962358;28;20572;-72
2022/10/07 00:14:01;;;;;;;26.83;5.75;;;;;;;;;;4969201;28;20484;-72
2022/10/07 00:16:28;;;;;;;19.83;5.45;;;;;;;;;;4971309;28;20344;-72
2022/10/07 00:18:56;;;;;;;23.83;4.47;;;;;;;;;;4979973;28;20472;-72
2022/10/07 00:21:23;;;;;;;25.92;5.97;;;;;;;;;;4962487;28;20049;-73
2022/10/07 00:23:49;;;;;;;19.75;4.75;;;;;;;;;;4969678;28;20118;-73
2022/10/07 00:26:17;;;;;;;30.90;5.15;;;;;;;;;;4970524;28;20031;-73
2022/10/07 00:28:43;;;;;;;24.42;5.30;;;;;;;;;;4976617;28;20056;-73
2022/10/07 00:31:11;;;;;;;23.55;6.80;;;;;;;;;;4973231;28;20042;-73
2022/10/07 00:33:38;;;;;;;26.38;6.00;;;;;;;;;;4975324;28;20076;-72
2022/10/07 00:36:08;;;;;;;26.65;5.88;;;;;;;;;;4981567;28;20075;-72
2022/10/07 00:38:34;;;;;;;30.87;5.63;;;;;;;;;;4974130;28;20034;-72
2022/10/07 00:41:00;;;;;;;24.23;5.25;;;;;;;;;;4973194;28;20732;-72
2022/10/07 00:43:31;;;;;;;22.08;5.75;;;;;;;;;;4973121;28;20058;-73
2022/10/07 00:45:59;;;;;;;34.47;6.03;;;;;;;;;;4973659;28;20035;-72
2022/10/07 00:48:30;;;;;;;23.63;5.00;;;;;;;;;;4974591;28;20019;-74
2022/10/07 00:50:57;;;;;;;30.98;6.07;;;;;;;;;;4977636;28;20037;-72
2022/10/07 00:53:25;;;;;;;31.05;6.32;;;;;;;;;;4972477;28;20038;-72
2022/10/07 00:55:51;;;;;;;22.50;6.40;;;;;;;;;;4984495;28;20027;-72
2022/10/07 00:58:18;;;;;;;24.45;5.60;;;;;;;;;;4969944;28;20520;-72
2022/10/07 01:00:45;;;;;;;24.80;5.50;;;;;;;;;;4966003;28;20051;-73
2022/10/07 01:03:11;;;;;;;31.88;6.38;;;;;;;;;;4970090;28;20038;-74
2022/10/07 01:05:37;;;;;;;27.40;5.65;;;;;;;;;;4972909;28;20106;-74
2022/10/07 01:08:03;;;;;;;28.02;6.47;;;;;;;;;;4971834;28;20035;-74
2022/10/07 01:10:41;;;;;;;29.80;5.97;;;;;;;;;;4975672;28;20026;-74
2022/10/07 01:13:16;;;;;;;34.53;6.50;;;;;;;;;;4974533;28;20027;-74
2022/10/07 01:15:54;;;;;;;33.22;6.82;;;;;;;;;;4970632;28;20038;-73
2022/10/07 01:18:24;;;;;;;31.33;6.18;;;;;;;;;;4973536;28;20027;-73
2022/10/07 01:21:03;;;;;;;32.53;6.33;;;;;;;;;;4976261;28;20109;-74
2022/10/07 01:23:29;;;;;;;30.92;6.50;;;;;;;;;;4974502;28;20042;-74
2022/10/07 01:26:10;;;;;;;25.42;6.30;;;;;;;;;;4972882;28;20027;-73
2022/10/07 01:28:38;;;;;;;27.25;6.03;;;;;;;;;;4976734;28;20035;-73
2022/10/07 01:31:07;;;;;;;32.75;7.13;;;;;;;;;;4972110;28;20035;-73
2022/10/07 01:33:34;;;;;;;33.20;6.50;;;;;;;;;;4981077;28;20054;-73
2022/10/07 01:36:07;;;;;;;23.17;7.07;;;;;;;;;;4974000;28;20170;-73
2022/10/07 01:38:35;;;;;;;28.73;7.30;;;;;;;;;;4982868;28;20367;-73
2022/10/07 01:41:03;;;;;;;31.48;7.03;;;;;;;;;;4956083;28;20035;-73
2022/10/07 01:43:30;;;;;;;29.05;7.43;;;;;;;;;;4971086;28;20086;-73
2022/10/07 01:45:56;;;;;;;29.55;7.05;;;;;;;;;;4972782;28;20035;-73
2022/10/07 01:48:22;;;;;;;29.60;6.97;;;;;;;;;;4973219;28;20027;-73
2022/10/07 01:50:50;;;;;;;29.25;6.93;;;;;;;;;;4973641;28;20467;-74
2022/10/07 01:53:19;;;;;;;27.17;7.72;;;;;;;;;;4976458;28;20467;-73
2022/10/07 01:55:45;;;;;;;32.83;8.80;;;;;;;;;;4987033;28;20033;-74
2022/10/07 01:58:29;;;;;;;28.35;8.07;;;;;;;;;;4978580;28;20047;-73
2022/10/07 02:01:07;;;;;;;34.42;7.40;;;;;;;;;;4977753;28;20066;-73
2022/10/07 02:03:44;;;;;;;28.17;7.25;;;;;;;;;;4985094;28;20535;-74
2022/10/07 02:06:10;;;;;;;32.17;7.18;;;;;;;;;;4970901;28;20110;-73
2022/10/07 02:08:40;;;;;;;33.67;8.05;;;;;;;;;;4972419;28;20121;-73
2022/10/07 02:11:12;;;;;;;40.38;7.88;;;;;;;;;;4973860;28;20015;-73
2022/10/07 02:13:47;;;;;;;35.75;8.38;;;;;;;;;;4974650;28;20038;-73
2022/10/07 02:16:18;;;;;;;28.55;7.82;;;;;;;;;;4989629;28;20097;-73
2022/10/07 02:18:47;;;;;;;24.55;6.78;;;;;;;;;;4972221;28;20478;-74
2022/10/07 02:21:13;;;;;;;40.05;8.55;;;;;;;;;;4971342;28;20031;-74
2022/10/07 02:23:41;;;;;;;32.75;8.18;;;;;;;;;;4972647;28;20027;-74
2022/10/07 02:26:09;;;;;;;30.55;8.93;;;;;;;;;;4971715;28;20038;-74
2022/10/07 02:28:39;;;;;;;31.02;8.15;;;;;;;;;;4973545;28;20155;-72
2022/10/07 02:31:05;;;;;;;33.15;8.20;;;;;;;;;;4972231;28;20110;-72
2022/10/07 02:33:32;;;;;;;34.92;9.13;;;;;;;;;;4973113;28;20034;-73
2022/10/07 02:35:59;;;;;;;31.90;8.20;;;;;;;;;;4977905;28;20042;-73
2022/10/07 02:38:25;;;;;;;34.90;8.05;;;;;;;;;;4970010;28;20077;-73
2022/10/07 02:40:51;;;;;;;35.97;8.45;;;;;;;;;;4969965;28;20031;-72
2022/10/07 02:43:29;;;;;;;33.67;8.95;;;;;;;;;;4969133;28;20515;-73
2022/10/07 02:45:59;;;;;;;32.53;9.73;;;;;;;;;;4971319;28;20113;-73
2022/10/07 02:48:32;;;;;;;26.52;9.18;;;;;;;;;;4964686;28;20027;-73
2022/10/07 02:51:01;;;;;;;37.38;10.20;;;;;;;;;;4965650;28;20031;-73
2022/10/07 02:53:31;;;;;;;29.77;8.38;;;;;;;;;;4975555;28;20031;-73
2022/10/07 02:55:59;;;;;;;38.28;10.80;;;;;;;;;;4985769;28;20714;-73
2022/10/07 02:58:26;;;;;;;31.95;9.80;;;;;;;;;;4971410;28;20038;-73
2022/10/07 03:00:54;;;;;;;38.92;10.00;;;;;;;;;;4969969;28;20118;-73
2022/10/07 03:03:20;;;;;;;35.60;9.57;;;;;;;;;;4970930;28;20645;-73
2022/10/07 03:05:48;;;;;;;29.50;8.90;;;;;;;;;;4969842;28;20118;-74
2022/10/07 03:08:14;;;;;;;39.38;9.93;;;;;;;;;;4971036;28;20096;-73
2022/10/07 03:10:40;;;;;;;32.47;9.45;;;;;;;;;;4971468;28;20043;-74
2022/10/07 03:13:06;;;;;;;34.60;9.50;;;;;;;;;;4968019;28;20046;-72
2022/10/07 03:15:34;;;;;;;23.17;8.07;;;;;;;;;;4969089;28;20125;-72
2022/10/07 03:18:00;;;;;;;26.80;8.13;;;;;;;;;;4973415;28;20046;-72
2022/10/07 03:20:27;;;;;;;30.70;8.10;;;;;;;;;;4970364;28;20042;-72
2022/10/07 03:22:53;;;;;;;34.05;9.52;;;;;;;;;;4973991;28;20066;-73
2022/10/07 03:25:19;;;;;;;30.63;8.23;;;;;;;;;;4970909;28;21796;-72
2022/10/07 03:27:47;;;;;;;38.83;9.57;;;;;;;;;;4970184;28;20480;-72
2022/10/07 03:30:13;;;;;;;31.15;9.57;;;;;;;;;;4971973;28;20034;-73
2022/10/07 03:32:40;;;;;;;35.83;9.02;;;;;;;;;;4970977;28;20043;-73
2022/10/07 03:35:06;;;;;;;33.95;9.35;;;;;;;;;;4969792;28;20090;-72
2022/10/07 03:37:32;;;;;;;46.85;10.38;;;;;;;;;;4971557;28;20054;-72
2022/10/07 03:39:58;;;;;;;28.45;8.75;;;;;;;;;;4971294;28;20535;-74
2022/10/07 03:42:24;;;;;;;40.05;9.15;;;;;;;;;;4968012;28;20636;-73
2022/10/07 03:44:50;;;;;;;36.35;8.80;;;;;;;;;;4971662;28;20148;-72
2022/10/07 03:47:17;;;;;;;31.25;9.10;;;;;;;;;;4970821;28;20113;-72
2022/10/07 03:49:45;;;;;;;34.28;9.18;;;;;;;;;;4971200;28;20035;-74
2022/10/07 03:52:11;;;;;;;36.50;8.60;;;;;;;;;;4969637;28;20031;-73
2022/10/07 03:54:38;;;;;;;34.50;8.63;;;;;;;;;;4969114;28;20070;-72
2022/10/07 03:57:48;;;;;;;28.42;7.93;;;;;;;;;;4969175;28;20043;-73
2022/10/07 03:59:52;;;;;;;26.38;8.88;;;;;;;;;;4967871;28;20067;-73
2022/10/07 04:02:19;;;;;;;38.65;8.45;;;;;;;;;;4988835;28;20042;-72
2022/10/07 04:04:45;;;;;;;37.30;9.43;;;;;;;;;;4973604;28;20033;-73
2022/10/07 04:07:11;;;;;;;30.67;8.13;;;;;;;;;;4975179;28;20042;-73
2022/10/07 04:09:38;;;;;;;36.08;8.57;;;;;;;;;;4964825;28;20053;-73
2022/10/07 04:12:04;;;;;;;39.15;8.93;;;;;;;;;;4974052;28;20039;-73
2022/10/07 04:14:30;;;;;;;28.88;8.57;;;;;;;;;;4976735;28;20041;-73
2022/10/07 04:16:56;;;;;;;32.75;8.43;;;;;;;;;;4976740;28;20102;-73
2022/10/07 04:19:22;;;;;;;37.03;8.20;;;;;;;;;;4974801;28;20031;-74
2022/10/07 04:21:48;;;;;;;33.15;8.75;;;;;;;;;;4978355;28;20381;-73
2022/10/07 04:24:14;;;;;;;32.83;9.82;;;;;;;;;;4973665;28;20031;-73
2022/10/07 04:26:40;;;;;;;33.42;8.43;;;;;;;;;;4973999;28;20113;-74
2022/10/07 04:29:06;;;;;;;35.92;7.65;;;;;;;;;;4973829;28;20448;-73
2022/10/07 04:31:32;;;;;;;34.30;7.85;;;;;;;;;;4973439;28;20165;-73
2022/10/07 04:33:58;;;;;;;40.53;8.13;;;;;;;;;;4974428;28;20069;-73
2022/10/07 04:36:26;;;;;;;27.90;7.68;;;;;;;;;;4986684;28;20066;-73
2022/10/07 04:38:52;;;;;;;32.25;8.95;;;;;;;;;;4964404;28;20062;-74
2022/10/07 04:41:18;;;;;;;28.17;7.85;;;;;;;;;;4971997;28;20035;-72
2022/10/07 04:43:44;;;;;;;28.10;8.85;;;;;;;;;;4973694;28;20035;-72
2022/10/07 04:46:12;;;;;;;32.22;7.93;;;;;;;;;;4973574;28;20031;-72
2022/10/07 04:48:40;;;;;;;29.83;7.80;;;;;;;;;;4956672;28;20534;-74
2022/10/07 04:51:07;;;;;;;25.40;6.97;;;;;;;;;;4984245;28;20026;-72
2022/10/07 04:53:34;;;;;;;35.47;8.95;;;;;;;;;;4973800;28;20203;-71
2022/10/07 04:56:00;;;;;;;36.03;7.53;;;;;;;;;;4968844;28;20047;-71
2022/10/07 04:58:29;;;;;;;27.90;7.15;;;;;;;;;;4974001;28;20125;-71
2022/10/07 05:00:56;;;;;;;30.98;8.77;;;;;;;;;;4961889;28;20514;-71
2022/10/07 05:03:23;;;;;;;33.15;7.30;;;;;;;;;;4973382;28;20045;-71
2022/10/07 05:05:50;;;;;;;26.75;6.80;;;;;;;;;;4971818;28;20447;-72
2022/10/07 05:08:18;;;;;;;41.22;8.05;;;;;;;;;;4974656;28;20018;-72
2022/10/07 05:10:45;;;;;;;30.58;7.47;;;;;;;;;;4965566;28;20022;-73
2022/10/07 05:13:12;;;;;;;39.70;7.68;;;;;;;;;;4964741;28;20070;-72
2022/10/07 05:15:47;;;;;;;21.13;8.18;;;;;;;;;;4972304;28;20035;-74
2022/10/07 05:18:13;;;;;;;25.60;7.07;;;;;;;;;;4967041;28;20043;-74
2022/10/07 05:20:42;;;;;;;23.45;6.68;;;;;;;;;;4969251;28;20042;-74
2022/10/07 05:23:08;;;;;;;29.70;7.63;;;;;;;;;;4968632;28;20035;-73
2022/10/07 05:25:34;;;;;;;31.38;7.35;;;;;;;;;;4969551;28;20039;-73
2022/10/07 05:28:00;;;;;;;31.05;7.57;;;;;;;;;;4968817;28;20038;-73
2022/10/07 05:30:26;;;;;;;22.35;6.57;;;;;;;;;;4970743;28;20419;-71
2022/10/07 05:32:53;;;;;;;26.70;6.60;;;;;;;;;;4966784;28;20037;-72
2022/10/07 05:35:19;;;;;;;33.67;7.45;;;;;;;;;;4970519;28;20097;-71
2022/10/07 05:37:45;;;;;;;37.88;6.93;;;;;;;;;;4965843;28;20042;-71
2022/10/07 05:40:11;;;;;;;25.98;6.85;;;;;;;;;;4991996;28;20042;-72
2022/10/07 05:42:37;;;;;;;28.63;6.53;;;;;;;;;;4968108;28;20105;-73
2022/10/07 05:45:04;;;;;;;28.10;7.72;;;;;;;;;;4968423;28;20034;-72
2022/10/07 05:47:32;;;;;;;22.23;5.80;;;;;;;;;;4973356;28;20353;-72
2022/10/07 05:49:58;;;;;;;34.70;7.40;;;;;;;;;;4975841;28;20135;-71
2022/10/07 05:52:24;;;;;;;33.53;6.57;;;;;;;;;;4981259;28;20041;-72
2022/10/07 05:54:50;;;;;;;26.40;6.45;;;;;;;;;;4991600;28;20034;-71
2022/10/07 05:57:17;;;;;;;31.63;6.18;;;;;;;;;;4979357;28;20047;-72
2022/10/07 05:59:43;;;;;;;27.98;6.43;;;;;;;;;;4968370;28;20107;-72
2022/10/07 06:02:13;;;;;;;26.20;6.60;;;;;;;;;;4967161;28;20034;-72
2022/10/07 06:04:41;;;;;;;26.85;6.10;;;;;;;;;;4967788;28;20476;-72
2022/10/07 06:07:08;;;;;;;23.33;5.97;;;;;;;;;;4966754;28;20031;-71
2022/10/07 06:15:03;;;;;;;24.92;6.38;;;;;;;;;;4966607;28;20052;-72
2022/10/07 06:17:29;;;;;;;24.17;5.93;;;;;;;;;;4964152;28;20520;-72
2022/10/07 06:19:55;;;;;;;35.25;6.53;;;;;;;;;;4964602;28;20035;-72
2022/10/07 06:22:21;;;;;;;29.27;6.95;;;;;;;;;;4971425;28;20041;-72
2022/10/07 06:24:50;;;;;;;28.77;6.63;;;;;;;;;;4970772;28;20031;-72
2022/10/07 06:27:16;;;;;;;24.90;6.53;;;;;;;;;;4969590;28;20054;-72
2022/10/07 06:29:42;;;;;;;31.42;7.13;;;;;;;;;;4968919;28;20031;-73
2022/10/07 06:32:09;;;;;;;29.73;7.53;;;;;;;;;;4970160;28;20085;-71
2022/10/07 06:34:35;;;;;;;37.33;7.05;;;;;;;;;;4964734;28;20050;-71
2022/10/07 06:37:01;;;;;;;24.70;5.43;;;;;;;;;;4964685;28;20043;-71
2022/10/07 06:39:27;;;;;;;27.52;7.15;;;;;;;;;;4964956;28;20085;-71
2022/10/07 06:41:53;;;;;;;25.23;6.10;;;;;;;;;;4967483;28;20031;-72
2022/10/07 06:44:20;;;;;;;29.50;6.05;;;;;;;;;;4966910;28;20031;-71
2022/10/07 06:46:46;;;;;;;25.33;5.38;;;;;;;;;;4967302;28;20039;-72
2022/10/07 06:49:12;;;;;;;24.35;5.68;;;;;;;;;;4965165;28;20477;-70
2022/10/07 06:51:38;;;;;;;23.80;5.22;;;;;;;;;;4966675;28;20042;-71
2022/10/07 06:54:04;;;;;;;34.78;7.75;;;;;;;;;;4971459;28;20038;-71
2022/10/07 06:56:30;;;;;;;25.48;5.85;;;;;;;;;;4969193;28;20057;-72
2022/10/07 06:58:56;;;;;;;22.17;5.13;;;;;;;;;;4969919;28;20049;-72
2022/10/07 07:01:22;;;;;;;32.97;5.47;;;;;;;;;;4970451;28;20026;-72
2022/10/07 07:03:48;;;;;;;33.63;5.95;;;;;;;;;;4990336;28;20492;-73
2022/10/07 07:06:14;;;;;;;31.13;5.97;;;;;;;;;;4968694;28;20041;-71
2022/10/07 07:08:40;;;;;;;26.73;5.35;;;;;;;;;;4969668;28;20034;-73
2022/10/07 07:11:34;;;;;;;32.90;6.70;;;;;;;;;;4969857;28;20567;-72
2022/10/07 07:13:53;;;;;;;28.13;5.15;;;;;;;;;;4966097;28;20054;-72
2022/10/07 07:16:20;;;;;;;29.90;5.20;;;;;;;;;;4965798;28;20480;-72
2022/10/07 07:18:57;;;;;;;22.08;5.32;;;;;;;;;;4970154;28;20040;-74
2022/10/07 07:21:24;;;;;;;21.05;5.25;;;;;;;;;;4968521;28;20034;-73
2022/10/07 07:23:50;;;;;;;21.70;4.95;;;;;;;;;;4968051;28;20114;-73
2022/10/07 07:26:17;;;;;;;30.23;7.22;;;;;;;;;;4968128;28;20505;-74
2022/10/07 07:28:44;;;;;;;24.00;4.80;;;;;;;;;;4968198;28;20042;-73
2022/10/07 07:31:11;;;;;;;29.90;7.03;;;;;;;;;;4978162;28;20035;-72
2022/10/07 07:33:38;;;;;;;29.30;5.30;;;;;;;;;;4968648;28;20038;-72
2022/10/07 07:36:17;;;;;;;23.90;5.57;;;;;;;;;;4966544;28;20031;-73
2022/10/07 07:38:43;;;;;;;35.50;5.25;;;;;;;;;;4965513;28;20117;-73
2022/10/07 07:41:09;;;;;;;31.27;5.70;;;;;;;;;;4967441;28;20043;-72
2022/10/07 07:43:36;;;;;;;33.47;5.32;;;;;;;;;;4971059;28;20126;-73
2022/10/07 07:46:03;;;;;;;25.13;6.03;;;;;;;;;;4971354;28;20026;-73
2022/10/07 07:48:30;;;;;;;24.58;5.32;;;;;;;;;;4970348;28;20031;-73
2022/10/07 07:50:56;;;;;;;21.90;4.18;;;;;;;;;;4970201;28;20035;-73
2022/10/07 07:53:22;;;;;;;24.85;4.95;;;;;;;;;;4967250;28;20066;-73
2022/10/07 07:55:57;;;;;;;27.23;5.20;;;;;;;;;;4965353;28;20038;-73
2022/10/07 07:58:23;;;;;;;31.73;5.90;;;;;;;;;;4965319;28;20073;-73
2022/10/07 08:01:00;;;;;;;23.52;5.63;;;;;;;;;;4969996;28;20031;-74
2022/10/07 08:03:26;;;;;;;26.58;5.35;;;;;;;;;;4972120;28;20142;-73
2022/10/07 08:05:52;;;;;;;22.75;4.20;;;;;;;;;;4968635;28;20035;-72
2022/10/07 08:08:18;;;;;;;27.50;5.10;;;;;;;;;;4969246;28;20027;-75
2022/10/07 08:10:44;;;;;;;28.55;5.55;;;;;;;;;;4966516;28;20118;-73
2022/10/07 08:13:10;;;;;;;22.63;4.30;;;;;;;;;;4966073;28;20470;-73
2022/10/07 08:15:37;;;;;;;28.83;4.28;;;;;;;;;;4967326;28;20041;-73
2022/10/07 08:18:04;;;;;;;21.52;4.28;;;;;;;;;;4978353;28;20060;-72
2022/10/07 08:20:30;;;;;;;20.25;4.13;;;;;;;;;;4974849;28;20034;-72
2022/10/07 08:22:58;;;;;;;19.48;3.92;;;;;;;;;;4966124;28;20106;-72
2022/10/07 08:25:25;;;;;;;20.85;4.60;;;;;;;;;;4983729;28;20389;-72
2022/10/07 08:27:51;;;;;;;25.60;4.43;;;;;;;;;;4966984;28;20377;-72
2022/10/07 08:30:17;;;;;;;22.30;5.13;;;;;;;;;;4966474;28;20034;-73
2022/10/07 08:32:44;;;;;;;18.55;3.70;;;;;;;;;;4968032;28;20472;-72
2022/10/07 08:35:10;;;;;;;21.83;4.07;;;;;;;;;;4968328;28;20558;-74
2022/10/07 08:37:36;;;;;;;21.15;4.13;;;;;;;;;;4968080;28;20051;-75
2022/10/07 08:40:02;;;;;;;19.77;4.47;;;;;;;;;;4982114;28;20031;-74
2022/10/07 08:42:39;;;;;;;28.13;4.63;;;;;;;;;;4966183;28;20054;-72
2022/10/07 08:45:09;;;;;;;29.73;5.13;;;;;;;;;;4964848;28;20074;-72
2022/10/07 08:47:42;;;;;;;26.23;4.53;;;;;;;;;;4978241;28;20039;-73
2022/10/07 08:50:11;;;;;;;25.13;4.25;;;;;;;;;;4969083;28;20027;-73
2022/10/07 08:52:40;;;;;;;25.73;4.70;;;;;;;;;;4971726;28;20031;-74
2022/10/07 08:55:17;;;;;;;23.25;4.60;;;;;;;;;;4969230;28;20927;-73
2022/10/07 08:58:03;;;;;;;25.02;4.75;;;;;;;;;;4968976;28;20043;-72
2022/10/07 09:00:34;;;;;;;25.48;4.03;;;;;;;;;;4984199;28;20034;-72
2022/10/07 09:03:14;;;;;;;21.45;4.18;;;;;;;;;;4974559;28;20042;-73
2022/10/07 09:05:43;;;;;;;21.00;3.75;;;;;;;;;;4976567;28;20038;-73
2022/10/07 09:08:19;;;;;;;31.63;4.90;;;;;;;;;;4988214;28;20033;-73
2022/10/07 09:10:49;;;;;;;23.00;4.72;;;;;;;;;;4970867;28;20030;-73
2022/10/07 09:13:19;;;;;;;19.08;4.95;;;;;;;;;;4977769;28;20752;-72
2022/10/07 09:15:54;;;;;;;31.38;5.60;;;;;;;;;;4973607;28;20041;-73
2022/10/07 09:18:39;;;;;;;28.20;5.95;;;;;;;;;;4969727;28;20027;-72
2022/10/07 09:21:08;;;;;;;22.90;4.03;;;;;;;;;;4991888;28;20097;-73
2022/10/07 09:23:35;;;;;;;17.08;3.70;;;;;;;;;;4984008;28;20356;-73
2022/10/07 09:26:01;;;;;;;21.88;3.92;;;;;;;;;;4990763;28;20031;-73
2022/10/07 09:28:32;;;;;;;26.65;4.78;;;;;;;;;;4972201;28;20035;-73
2022/10/07 09:30:58;;;;;;;31.02;4.50;;;;;;;;;;4977092;28;20472;-73
2022/10/07 09:33:25;;;;;;;26.67;4.95;;;;;;;;;;4969195;28;20068;-72
2022/10/07 09:35:56;;;;;;;18.40;3.88;;;;;;;;;;4968695;28;20507;-74
2022/10/07 09:38:31;;;;;;;29.55;4.70;;;;;;;;;;4969678;28;20054;-73
2022/10/07 09:41:18;;;;;;;20.20;4.32;;;;;;;;;;4964896;28;20415;-73
2022/10/07 09:43:56;;;;;;;21.88;3.90;;;;;;;;;;4966650;28;20031;-73
2022/10/07 09:46:33;;;;;;;26.52;4.35;;;;;;;;;;4967483;28;20424;-73
2022/10/07 09:49:03;;;;;;;25.92;4.43;;;;;;;;;;4968992;28;20031;-73
2022/10/07 09:51:30;;;;;;;31.17;5.25;;;;;;;;;;4970770;28;20106;-72
2022/10/07 09:54:03;;;;;;;22.08;3.92;;;;;;;;;;4972568;28;20039;-72
2022/10/07 09:56:32;;;;;;;33.72;4.28;;;;;;;;;;4973077;28;20029;-72
2022/10/07 09:59:24;;;;;;;20.08;4.22;;;;;;;;;;4973059;28;20034;-72
2022/10/07 10:01:55;;;;;;;22.00;4.72;;;;;;;;;;4968060;28;20066;-73
2022/10/07 10:04:32;;;;;;;20.85;4.20;;;;;;;;;;4968574;28;20026;-72
2022/10/07 10:07:05;;;;;;;21.80;4.50;;;;;;;;;;4969376;28;20057;-72
2022/10/07 10:09:32;;;;;;;22.65;4.68;;;;;;;;;;4971752;28;20155;-72
2022/10/07 10:12:02;;;;;;;18.52;4.45;;;;;;;;;;4980053;28;20043;-73
2022/10/07 10:14:48;;;;;;;24.42;4.70;;;;;;;;;;4970871;28;20034;-73
2022/10/07 10:17:27;;;;;;;24.52;4.18;;;;;;;;;;4976004;28;20027;-73
2022/10/07 10:19:53;;;;;;;20.30;4.15;;;;;;;;;;4970230;28;20031;-73
2022/10/07 10:22:26;;;;;;;22.35;4.10;;;;;;;;;;4970103;28;20037;-73
2022/10/07 10:27:46;;;;;;;26.15;6.05;;;;;;;;;;4971732;28;20056;-73
2022/10/07 10:30:18;;;;;;;22.38;4.20;;;;;;;;;;4965424;28;20099;-71
2022/10/07 10:32:48;;;;;;;18.88;3.80;;;;;;;;;;4967264;28;20116;-73
2022/10/07 10:35:26;;;;;;;30.95;4.63;;;;;;;;;;4971205;28;20034;-74
2022/10/07 10:38:03;;;;;;;23.60;4.55;;;;;;;;;;4970578;28;20031;-74
2022/10/07 10:40:35;;;;;;;21.25;4.70;;;;;;;;;;4964228;28;20110;-74
2022/10/07 10:43:19;;;;;;;22.45;4.38;;;;;;;;;;4967642;28;20039;-74
2022/10/07 10:46:04;;;;;;;23.60;3.95;;;;;;;;;;4971755;28;20609;-74
2022/10/07 10:48:39;;;;;;;22.67;5.13;;;;;;;;;;4972084;28;20495;-74
2022/10/07 10:51:05;;;;;;;23.55;4.68;;;;;;;;;;4962413;28;20119;-74
2022/10/07 10:53:57;;;;;;;18.02;3.67;;;;;;;;;;4964994;28;20027;-74
2022/10/07 10:56:26;;;;;;;25.13;4.75;;;;;;;;;;4972044;28;20043;-73
2022/10/07 10:58:53;;;;;;;24.65;4.15;;;;;;;;;;4967642;28;20089;-74
2022/10/07 11:01:30;;;;;;;18.30;4.22;;;;;;;;;;4966688;28;20121;-74
2022/10/07 11:04:15;;;;;;;26.27;4.32;;;;;;;;;;4968068;28;20125;-74
2022/10/07 11:06:44;;;;;;;18.52;4.80;;;;;;;;;;4966802;28;20142;-74
2022/10/07 11:09:15;;;;;;;20.33;3.92;;;;;;;;;;4962610;28;20150;-72
2022/10/07 11:11:42;;;;;;;21.90;4.60;;;;;;;;;;4958267;28;20028;-72
2022/10/07 11:14:16;;;;;;;15.23;3.58;;;;;;;;;;4964380;28;20039;-74
2022/10/07 11:16:47;;;;;;;43.70;4.32;;;;;;;;;;4968023;28;20055;-73
2022/10/07 11:19:20;;;;;;;21.70;3.35;;;;;;;;;;4965339;28;20546;-72
2022/10/07 11:21:49;;;;;;;19.02;3.55;;;;;;;;;;4979148;28;20037;-73
2022/10/07 11:24:41;;;;;;;17.25;3.30;;;;;;;;;;4965021;28;20094;-73
2022/10/07 11:27:13;;;;;;;28.98;3.80;;;;;;;;;;4962463;28;20043;-73
2022/10/07 11:29:42;;;;;;;17.85;3.78;;;;;;;;;;4967178;28;20117;-73
2022/10/07 11:32:29;;;;;;;18.05;3.28;;;;;;;;;;4973280;28;20121;-73
2022/10/07 11:34:59;;;;;;;17.38;2.95;;;;;;;;;;4971434;28;20057;-74
2022/10/07 11:37:35;;;;;;;31.63;3.77;;;;;;;;;;4963842;28;20459;-74
2022/10/07 11:40:05;;;;;;;16.02;2.90;;;;;;;;;;4964665;28;20497;-74
2022/10/07 11:42:33;;;;;;;24.33;3.77;;;;;;;;;;4964906;28;20035;-73
2022/10/07 11:45:01;;;;;;;21.70;3.28;;;;;;;;;;4974453;28;20289;-74
2022/10/07 11:47:31;;;;;;;15.27;3.10;;;;;;;;;;4966755;28;20031;-74
2022/10/07 11:50:02;;;;;;;18.98;3.38;;;;;;;;;;4970611;28;20190;-73
2022/10/07 11:52:30;;;;;;;16.70;3.70;;;;;;;;;;4968654;28;20503;-73
2022/10/07 11:54:59;;;;;;;17.73;3.25;;;;;;;;;;4966445;28;20030;-74
2022/10/07 11:57:26;;;;;;;19.85;2.95;;;;;;;;;;4967267;28;20092;-74
2022/10/07 11:59:58;;;;;;;22.73;3.13;;;;;;;;;;4966261;28;20117;-74
2022/10/07 12:02:27;;;;;;;15.15;2.72;;;;;;;;;;4970791;28;20031;-73
2022/10/07 12:04:54;;;;;;;29.00;3.63;;;;;;;;;;4971576;28;20031;-74
2022/10/07 12:07:32;;;;;;;37.10;3.13;;;;;;;;;;4977045;28;20038;-74
2022/10/07 12:10:02;;;;;;;19.77;4.00;;;;;;;;;;4970195;28;20035;-75
2022/10/07 12:12:49;;;;;;;17.75;3.05;;;;;;;;;;4972031;28;20512;-75
2022/10/07 12:15:24;;;;;;;79.60;5.88;;;;;;;;;;4971433;28;20085;-75
2022/10/07 12:18:05;;;;;;;100.05;5.80;;;;;;;;;;4968465;28;20344;-74
2022/10/07 12:20:35;;;;;;;29.92;3.58;;;;;;;;;;4966510;28;20030;-75
2022/10/07 12:23:20;;;;;;;15.60;2.72;;;;;;;;;;4971808;28;21324;-75
2022/10/07 12:25:46;;;;;;;19.23;3.00;;;;;;;;;;4974149;28;20034;-74
2022/10/07 12:28:25;;;;;;;37.03;4.47;;;;;;;;;;4969714;28;20030;-74
2022/10/07 12:30:55;;;;;;;19.92;3.65;;;;;;;;;;4969858;28;20027;-74
2022/10/07 12:33:34;;;;;;;13.50;3.28;;;;;;;;;;4967177;28;20042;-76
2022/10/07 12:36:22;;;;;;;16.13;3.00;;;;;;;;;;4969877;28;20519;-74
2022/10/07 12:39:00;;;;;;;18.33;3.83;;;;;;;;;;4974549;28;20109;-75
2022/10/07 12:41:30;;;;;;;18.38;2.65;;;;;;;;;;4967290;28;20040;-74
2022/10/07 12:44:05;;;;;;;19.33;3.72;;;;;;;;;;4969229;28;20554;-74
2022/10/07 12:46:33;;;;;;;15.88;3.35;;;;;;;;;;4972107;28;20047;-75
2022/10/07 12:48:59;;;;;;;15.52;3.53;;;;;;;;;;4969728;28;20097;-74
2022/10/07 12:51:28;;;;;;;20.73;3.30;;;;;;;;;;4967068;28;20031;-75
2022/10/07 12:53:55;;;;;;;14.45;3.40;;;;;;;;;;4970535;28;20555;-74
2022/10/07 12:56:25;;;;;;;15.35;3.40;;;;;;;;;;4970179;28;20029;-74
2022/10/07 13:01:41;;;;;;;17.83;3.45;;;;;;;;;;4966834;28;20054;-73
2022/10/07 13:04:21;;;;;;;18.63;2.90;;;;;;;;;;4974789;28;20533;-74
2022/10/07 13:07:06;;;;;;;17.38;2.80;;;;;;;;;;4972659;28;20023;-74
2022/10/07 13:09:32;;;;;;;18.55;3.00;;;;;;;;;;4974872;28;20019;-73
2022/10/07 13:12:05;;;;;;;13.60;2.70;;;;;;;;;;4977018;28;20390;-74
2022/10/07 13:14:43;;;;;;;9.88;3.10;;;;;;;;;;4974616;28;20444;-74
2022/10/07 13:17:34;;;;;;;21.92;3.75;;;;;;;;;;4972191;28;20049;-73
2022/10/07 13:20:15;;;;;;;20.40;2.83;;;;;;;;;;4973800;28;20042;-74
2022/10/07 13:22:46;;;;;;;13.25;2.92;;;;;;;;;;4974030;28;20097;-73
2022/10/07 13:25:13;;;;;;;25.40;3.72;;;;;;;;;;4974648;28;20140;-73
2022/10/07 13:27:40;;;;;;;16.02;3.30;;;;;;;;;;4974246;28;20027;-74
2022/10/07 13:30:27;;;;;;;21.50;3.08;;;;;;;;;;4974363;28;20027;-74
2022/10/07 13:32:53;;;;;;;22.90;3.85;;;;;;;;;;4975483;28;20035;-74
2022/10/07 13:35:28;;;;;;;16.95;3.03;;;;;;;;;;4973176;28;20539;-75
2022/10/07 13:37:54;;;;;;;19.60;3.03;;;;;;;;;;4954507;28;20023;-74
2022/10/07 13:40:32;;;;;;;19.73;2.92;;;;;;;;;;4954555;28;20031;-74
2022/10/07 13:43:00;;;;;;;20.83;3.15;;;;;;;;;;4954677;28;20099;-73
2022/10/07 13:45:27;;;;;;;20.58;3.47;;;;;;;;;;4972870;28;20026;-74
2022/10/07 13:47:53;;;;;;;18.63;3.03;;;;;;;;;;4988376;28;20437;-74
2022/10/07 13:50:22;;;;;;;25.85;3.67;;;;;;;;;;4973241;28;20035;-73
2022/10/07 13:52:48;;;;;;;20.70;4.13;;;;;;;;;;4983827;28;20109;-74
2022/10/07 13:55:27;;;;;;;22.13;3.42;;;;;;;;;;4972962;28;20045;-74
2022/10/07 13:57:56;;;;;;;20.30;3.38;;;;;;;;;;4974014;28;20034;-73
2022/10/07 14:00:22;;;;;;;17.25;3.22;;;;;;;;;;4976039;28;20027;-73
2022/10/07 14:02:49;;;;;;;17.75;3.97;;;;;;;;;;4974962;28;20046;-73
2022/10/07 14:05:22;;;;;;;17.85;3.50;;;;;;;;;;4977070;28;20488;-73
2022/10/07 14:07:56;;;;;;;18.98;3.40;;;;;;;;;;4983988;28;20038;-74
2022/10/07 14:10:24;;;;;;;16.42;3.30;;;;;;;;;;4976193;28;20027;-73
2022/10/07 14:12:55;;;;;;;15.77;3.28;;;;;;;;;;4974715;28;20031;-73
2022/10/07 14:15:28;;;;;;;14.90;2.97;;;;;;;;;;4974259;28;20036;-73
2022/10/07 14:17:57;;;;;;;10.80;2.65;;;;;;;;;;4964750;28;20031;-74
2022/10/07 14:20:23;;;;;;;19.13;2.88;;;;;;;;;;4957225;28;20485;-74
2022/10/07 14:22:52;;;;;;;16.30;2.78;;;;;;;;;;4971908;28;20050;-73
2022/10/07 14:25:26;;;;;;;47.30;4.53;;;;;;;;;;4954454;29;20503;-74
2022/10/07 14:27:52;;;;;;;16.77;2.85;;;;;;;;;;4954298;28;20042;-73
2022/10/07 14:36:09;;;;;;;18.55;3.40;;;;;;;;;;4975151;28;20065;-74
2022/10/07 14:38:35;;;;;;;14.65;3.08;;;;;;;;;;4971052;28;20066;-73
2022/10/07 14:41:01;;;;;;;18.50;3.22;;;;;;;;;;4972067;28;20027;-74
2022/10/07 14:43:30;;;;;;;19.80;3.63;;;;;;;;;;4970832;28;20035;-75
2022/10/07 14:45:56;;;;;;;13.68;2.63;;;;;;;;;;4968800;28;20425;-73
2022/10/07 14:48:22;;;;;;;18.80;3.67;;;;;;;;;;4971873;28;20127;-73
2022/10/07 14:50:50;;;;;;;19.42;2.95;;;;;;;;;;4970506;28;20073;-74
2022/10/07 14:53:16;;;;;;;17.02;3.58;;;;;;;;;;4984901;28;20027;-73
2022/10/07 14:55:42;;;;;;;15.32;3.55;;;;;;;;;;4971459;28;20042;-74
2022/10/07 14:58:09;;;;;;;17.50;3.55;;;;;;;;;;4971783;28;20554;-74
2022/10/07 15:00:36;;;;;;;13.52;3.20;;;;;;;;;;4972037;28;20031;-74
2022/10/07 15:03:02;;;;;;;13.82;2.75;;;;;;;;;;4972083;28;20365;-74